Time;durP1;ratioP1;P1;durP2;ratioP2;P2;SDS_P1;SDS_P2;PMS_P1;PMS_P2;Temp;Humidity;BMP_temperature;BMP_pressure;BME280_temperature;BME280_humidity;BME280_pressure;Samples;Min_cycle;Max_cycle;Signal;HPM_P1;HPM_P2
2021/05/02 00:01:16;;;;;;;7.50;6.80;;;;;;;12.19;100.00;98388.38;1785852;80;20940;-61
2021/05/02 00:03:44;;;;;;;7.72;7.12;;;;;;;12.19;100.00;98377.20;1788394;80;21197;-61
2021/05/02 00:06:12;;;;;;;7.95;7.20;;;;;;;12.21;100.00;98373.80;1767591;80;21135;-60
2021/05/02 00:08:41;;;;;;;7.83;7.12;;;;;;;12.26;100.00;98380.67;1736072;82;20981;-62
2021/05/02 00:11:09;;;;;;;7.90;7.12;;;;;;;12.29;100.00;98381.59;1739147;82;21052;-62
2021/05/02 00:13:37;;;;;;;7.45;6.85;;;;;;;12.34;100.00;98384.96;1751048;81;21079;-63
2021/05/02 00:16:05;;;;;;;8.03;7.42;;;;;;;12.36;100.00;98383.73;1750987;82;21386;-61
2021/05/02 00:18:34;;;;;;;7.58;6.87;;;;;;;12.39;100.00;98376.65;1736795;82;21154;-61
2021/05/02 00:21:01;;;;;;;7.37;6.78;;;;;;;12.41;100.00;98375.09;1750872;82;21039;-61
2021/05/02 00:23:29;;;;;;;7.90;6.90;;;;;;;12.41;100.00;98375.09;1737232;81;21114;-61
2021/05/02 00:25:56;;;;;;;7.65;6.97;;;;;;;12.43;100.00;98370.39;1750935;82;20955;-61
2021/05/02 00:28:24;;;;;;;7.60;7.00;;;;;;;12.42;100.00;98368.74;1732817;81;21200;-61
2021/05/02 00:30:52;;;;;;;7.35;6.75;;;;;;;12.41;100.00;98371.63;1738625;82;21158;-63
2021/05/02 00:33:19;;;;;;;7.75;7.10;;;;;;;12.39;100.00;98377.16;1734073;82;21120;-61
2021/05/02 00:35:48;;;;;;;8.13;7.35;;;;;;;12.34;100.00;98375.13;1750900;82;20986;-62
2021/05/02 00:38:16;;;;;;;8.05;7.37;;;;;;;12.32;100.00;98383.02;1748289;81;21110;-62
2021/05/02 00:40:44;;;;;;;7.92;7.33;;;;;;;12.31;100.00;98384.04;1750884;82;21259;-61
2021/05/02 00:43:13;;;;;;;7.95;7.25;;;;;;;12.32;100.00;98388.36;1737407;81;21138;-61
2021/05/02 00:46:15;;;;;;;7.80;7.00;;;;;;;12.34;100.00;98395.13;1750945;82;21173;-60
2021/05/02 00:48:53;;;;;;;7.60;6.90;;;;;;;12.36;100.00;98390.39;1712466;82;21536;-60
2021/05/02 00:51:21;;;;;;;7.55;6.95;;;;;;;12.38;100.00;98394.20;1721024;83;21176;-60
2021/05/02 00:54:08;;;;;;;8.33;7.62;;;;;;;12.35;100.00;98399.44;1735246;82;22300;-61
2021/05/02 00:56:44;;;;;;;8.38;6.90;;;;;;;12.32;100.00;98407.03;1707378;81;21132;-60
2021/05/02 00:59:32;;;;;;;8.90;8.05;;;;;;;12.33;100.00;98396.14;1830714;78;22894;-62
2021/05/02 01:02:03;;;;;;;8.90;8.10;;;;;;;12.24;100.00;98398.73;1805887;79;20910;-59
2021/05/02 01:04:32;;;;;;;8.88;8.08;;;;;;;12.22;100.00;98400.79;1806451;79;21243;-60
2021/05/02 01:07:04;;;;;;;8.68;7.87;;;;;;;12.19;100.00;98401.20;1784773;79;21001;-61
2021/05/02 01:09:32;;;;;;;8.90;8.10;;;;;;;12.19;100.00;98402.53;1784808;79;21693;-62
2021/05/02 01:12:01;;;;;;;9.15;8.35;;;;;;;12.19;100.00;98391.86;1807324;79;20973;-61
2021/05/02 01:14:31;;;;;;;9.05;8.35;;;;;;;12.18;100.00;98394.72;1784786;79;21597;-61
2021/05/02 01:16:59;;;;;;;9.00;8.10;;;;;;;12.16;100.00;98386.94;1785228;78;22453;-62
2021/05/02 01:19:28;;;;;;;8.88;8.08;;;;;;;12.12;100.00;98381.70;1802111;78;21072;-63
2021/05/02 01:21:58;;;;;;;9.08;8.30;;;;;;;12.10;100.00;98376.27;1784693;79;20979;-60
2021/05/02 01:24:26;;;;;;;8.50;7.80;;;;;;;12.05;100.00;98370.23;1807451;79;21489;-61
2021/05/02 01:26:54;;;;;;;8.83;7.85;;;;;;;12.01;100.00;98360.19;1787655;79;21136;-61
2021/05/02 01:29:23;;;;;;;8.50;7.72;;;;;;;11.97;100.00;98348.28;1785476;79;21399;-61
2021/05/02 01:31:50;;;;;;;9.13;8.43;;;;;;;11.93;100.00;98336.41;1784689;79;21661;-61
2021/05/02 01:34:18;;;;;;;10.05;9.20;;;;;;;11.87;100.00;98333.23;1784702;78;21041;-61
2021/05/02 01:36:45;;;;;;;10.50;8.10;;;;;;;11.81;100.00;98329.53;1784694;79;21013;-62
2021/05/02 01:39:12;;;;;;;10.78;7.58;;;;;;;11.78;100.00;98330.77;1789154;78;21125;-63
2021/05/02 01:41:41;;;;;;;9.88;8.93;;;;;;;11.79;100.00;98336.92;1784791;79;21386;-62
2021/05/02 01:44:08;;;;;;;8.90;8.20;;;;;;;11.82;100.00;98340.52;1784786;79;20941;-62
2021/05/02 01:46:41;;;;;;;8.68;7.95;;;;;;;11.85;100.00;98337.44;1784797;79;20989;-61
2021/05/02 01:49:10;;;;;;;8.75;7.95;;;;;;;11.87;100.00;98339.37;1786929;79;20922;-61
2021/05/02 01:51:39;;;;;;;8.65;7.92;;;;;;;11.89;100.00;98337.33;1807445;78;20906;-61
2021/05/02 01:54:07;;;;;;;9.10;8.25;;;;;;;11.88;100.00;98341.03;1784702;79;21200;-61
2021/05/02 01:56:34;;;;;;;9.03;8.23;;;;;;;11.88;100.00;98336.21;1784608;79;21049;-60
2021/05/02 01:59:04;;;;;;;9.60;8.78;;;;;;;11.87;100.00;98335.38;1771523;79;21112;-61
2021/05/02 02:01:32;;;;;;;9.93;8.48;;;;;;;11.88;100.00;98341.54;1770941;81;21018;-61
2021/05/02 02:04:02;;;;;;;8.98;8.25;;;;;;;11.88;100.00;98336.21;1771034;81;21487;-61
2021/05/02 02:06:29;;;;;;;8.48;7.78;;;;;;;11.88;100.00;98341.03;1739750;81;22799;-61
2021/05/02 02:09:00;;;;;;;8.50;7.80;;;;;;;11.88;100.00;98338.37;1767857;81;21006;-61
2021/05/02 02:11:29;;;;;;;8.75;8.00;;;;;;;11.90;100.00;98335.48;1770373;80;20982;-62
2021/05/02 02:13:58;;;;;;;8.53;7.83;;;;;;;11.92;100.00;98340.09;1770363;81;20990;-62
2021/05/02 02:16:26;;;;;;;8.83;8.03;;;;;;;11.94;100.00;98345.52;1770356;80;20994;-61
2021/05/02 02:18:55;;;;;;;8.30;7.58;;;;;;;11.92;100.00;98340.91;1758277;80;21000;-62
2021/05/02 02:21:24;;;;;;;9.13;8.33;;;;;;;11.89;100.00;98340.53;1756765;80;20945;-61
2021/05/02 02:23:58;;;;;;;8.13;7.42;;;;;;;11.86;100.00;98332.44;1769098;81;21034;-60
2021/05/02 02:26:30;;;;;;;7.83;7.22;;;;;;;11.82;100.00;98331.69;1770359;81;21001;-59
2021/05/02 02:28:57;;;;;;;7.62;7.03;;;;;;;11.71;100.00;98331.29;1769848;79;21194;-60
2021/05/02 02:31:25;;;;;;;7.47;6.87;;;;;;;11.58;100.00;98323.77;1749618;81;22058;-61
2021/05/02 02:33:52;;;;;;;8.10;7.37;;;;;;;11.46;100.00;98326.74;1769244;81;21213;-61
2021/05/02 02:36:20;;;;;;;7.95;7.35;;;;;;;11.33;100.00;98326.72;1760646;80;21668;-60
2021/05/02 02:38:47;;;;;;;7.70;7.08;;;;;;;11.24;100.00;98330.08;1707412;82;21203;-60
2021/05/02 02:41:17;;;;;;;7.58;6.92;;;;;;;11.20;100.00;98328.85;1760442;80;21156;-62
2021/05/02 02:43:56;;;;;;;7.28;6.70;;;;;;;11.16;100.00;98326.27;1731873;81;21361;-60
2021/05/02 02:46:25;;;;;;;7.92;7.22;;;;;;;11.13;100.00;98318.17;1755706;81;21607;-59
2021/05/02 02:48:58;;;;;;;8.90;8.08;;;;;;;11.16;100.00;98311.13;1746416;80;21604;-61
2021/05/02 02:51:27;;;;;;;8.23;7.53;;;;;;;11.13;100.00;98307.53;1761385;80;20952;-61
2021/05/02 02:53:59;;;;;;;8.25;7.55;;;;;;;11.12;100.00;98301.92;1739880;80;20995;-61
2021/05/02 02:56:28;;;;;;;8.60;7.80;;;;;;;11.14;100.00;98296.38;1739830;80;21436;-62
2021/05/02 02:59:11;;;;;;;8.75;8.05;;;;;;;11.15;100.00;98295.37;1762902;79;21021;-61
2021/05/02 03:01:42;;;;;;;8.83;8.13;;;;;;;11.14;100.00;98297.70;1773376;79;20976;-60
2021/05/02 03:04:10;;;;;;;8.30;7.60;;;;;;;11.10;100.00;98297.31;1773379;79;20970;-62
2021/05/02 03:06:38;;;;;;;9.00;8.20;;;;;;;11.06;100.00;98297.39;1778088;79;21081;-62
2021/05/02 03:09:06;;;;;;;9.00;8.28;;;;;;;11.02;100.00;98299.33;1793601;79;21282;-63
2021/05/02 03:11:33;;;;;;;8.45;7.75;;;;;;;11.00;100.00;98295.52;1776179;79;20999;-62
2021/05/02 03:14:03;;;;;;;8.58;7.87;;;;;;;10.96;100.00;98287.64;1773361;79;21005;-62
2021/05/02 03:16:30;;;;;;;8.63;7.92;;;;;;;10.92;100.00;98286.39;1773275;79;20931;-63
2021/05/02 03:19:04;;;;;;;9.65;8.85;;;;;;;10.89;100.00;98289.48;1772888;79;21136;-61
2021/05/02 03:21:34;;;;;;;8.10;7.50;;;;;;;10.85;100.00;98293.55;1772528;79;21404;-62
2021/05/02 03:24:03;;;;;;;8.63;7.87;;;;;;;10.86;100.00;98282.40;1776717;79;21052;-63
2021/05/02 03:26:30;;;;;;;8.25;7.45;;;;;;;10.89;100.00;98280.17;1799030;79;21108;-62
2021/05/02 03:28:59;;;;;;;6.70;6.20;;;;;;;10.90;100.00;98287.11;1784749;79;21160;-61
2021/05/02 03:31:33;;;;;;;7.17;6.58;;;;;;;10.91;100.00;98287.94;1793363;79;20923;-61
2021/05/02 03:34:06;;;;;;;6.95;6.42;;;;;;;10.86;100.00;98285.89;1730532;82;22538;-61
2021/05/02 03:36:38;;;;;;;5.80;5.30;;;;;;;10.81;100.00;98288.83;1757948;81;21118;-60
2021/05/02 03:39:05;;;;;;;6.80;5.30;;;;;;;10.81;100.00;98280.85;1750955;81;21050;-61
2021/05/02 03:41:34;;;;;;;5.72;5.30;;;;;;;10.73;100.00;98284.52;1765964;81;21113;-61
2021/05/02 03:44:03;;;;;;;5.83;4.60;;;;;;;10.63;100.00;98285.41;1725336;82;21043;-60
2021/05/02 03:46:31;;;;;;;5.05;4.65;;;;;;;10.56;100.00;98279.76;1739168;82;21201;-61
2021/05/02 03:49:06;;;;;;;5.10;4.70;;;;;;;10.47;100.00;98281.75;1732551;82;20962;-60
2021/05/02 03:51:36;;;;;;;9.15;4.92;;;;;;;10.43;100.00;98279.16;1739100;82;21042;-62
2021/05/02 03:54:05;;;;;;;8.13;4.75;;;;;;;10.39;100.00;98275.28;1718157;82;21018;-60
2021/05/02 03:56:36;;;;;;;4.60;4.30;;;;;;;10.38;100.00;98280.27;1723799;82;21618;-60
2021/05/02 03:59:15;;;;;;;7.12;4.72;;;;;;;10.37;100.00;98270.17;1799347;79;21353;-61
2021/05/02 04:01:54;;;;;;;9.45;4.85;;;;;;;10.36;100.00;98262.38;1782507;79;21176;-61
2021/05/02 04:04:24;;;;;;;7.80;4.80;;;;;;;10.36;100.00;98256.55;1781542;80;21081;-60
2021/05/02 04:06:53;;;;;;;5.22;4.72;;;;;;;10.36;100.00;98257.88;1780587;80;20902;-60
2021/05/02 04:09:21;;;;;;;5.12;4.72;;;;;;;10.37;100.00;98258.71;1718962;82;21065;-61
2021/05/02 04:11:48;;;;;;;5.35;4.95;;;;;;;10.37;100.00;98256.05;1780340;80;21430;-61
2021/05/02 04:14:17;;;;;;;5.65;4.40;;;;;;;10.35;100.00;98255.44;1781462;80;21153;-62
2021/05/02 04:17:05;;;;;;;5.10;4.67;;;;;;;10.32;100.00;98252.67;1781940;79;21145;-61
2021/05/02 04:19:39;;;;;;;5.03;4.62;;;;;;;10.30;100.00;98247.20;1792817;79;21128;-60
2021/05/02 04:22:07;;;;;;;5.10;4.70;;;;;;;10.35;100.00;98240.81;1788156;79;21113;-60
2021/05/02 04:24:34;;;;;;;6.85;5.83;;;;;;;10.41;100.00;98240.83;1786937;79;21582;-60
2021/05/02 04:27:03;;;;;;;5.67;5.28;;;;;;;10.51;100.00;98244.43;1769982;79;21127;-60
2021/05/02 04:29:32;;;;;;;5.17;4.83;;;;;;;10.64;100.00;98239.69;1780960;79;21026;-60
2021/05/02 04:32:03;;;;;;;5.20;4.80;;;;;;;10.82;100.00;98242.60;1758972;80;21642;-61
2021/05/02 04:34:30;;;;;;;6.83;5.05;;;;;;;10.96;100.00;98250.39;1780595;80;21120;-61
2021/05/02 04:36:58;;;;;;;9.28;4.97;;;;;;;11.04;100.00;98248.87;1759665;80;22154;-60
2021/05/02 04:39:27;;;;;;;5.92;5.37;;;;;;;11.12;100.00;98251.84;1786590;79;21030;-62
2021/05/02 04:41:55;;;;;;;6.35;5.85;;;;;;;11.18;100.00;98239.58;1781463;80;21034;-62
2021/05/02 04:44:24;;;;;;;5.90;5.50;;;;;;;11.26;100.00;98241.53;1781385;80;21158;-63
2021/05/02 04:46:52;;;;;;;9.90;5.17;;;;;;;11.40;100.00;98241.83;1781545;80;21045;-61
2021/05/02 04:49:21;;;;;;;6.03;5.42;;;;;;;11.58;100.00;98244.69;1787828;79;21354;-61
2021/05/02 04:51:48;;;;;;;6.90;4.50;;;;;;;11.73;100.00;98241.85;1781504;80;21061;-61
2021/05/02 04:54:16;;;;;;;5.42;5.00;;;;;;;11.85;100.00;98238.02;1781519;80;20927;-62
2021/05/02 04:56:43;;;;;;;5.12;4.78;;;;;;;11.98;100.00;98244.15;1781442;79;21015;-61
2021/05/02 04:59:11;;;;;;;6.50;6.00;;;;;;;12.14;100.00;98234.38;1780049;79;21570;-61
2021/05/02 05:01:40;;;;;;;6.87;5.70;;;;;;;12.29;100.00;98228.77;1795895;79;21369;-63
2021/05/02 05:04:07;;;;;;;6.45;5.87;;;;;;;12.38;100.00;98224.85;1793194;79;21515;-62
2021/05/02 05:06:36;;;;;;;6.20;5.72;;;;;;;12.53;100.00;98219.23;1780696;79;21045;-60
2021/05/02 05:09:05;;;;;;;6.05;5.60;;;;;;;12.74;100.00;98211.73;1780627;79;20979;-62
2021/05/02 05:11:34;;;;;;;5.55;5.05;;;;;;;12.99;100.00;98203.25;1777727;79;21156;-61
2021/05/02 05:14:02;;;;;;;5.85;5.37;;;;;;;13.43;100.00;98204.98;1791919;79;21371;-62
2021/05/02 05:16:30;;;;;;;5.85;5.37;;;;;;;14.05;100.00;98209.29;1773210;79;21058;-63
2021/05/02 05:18:58;;;;;;;6.75;6.15;;;;;;;14.70;100.00;98201.54;1773262;79;20918;-61
2021/05/02 05:21:26;;;;;;;6.03;5.62;;;;;;;15.32;100.00;98201.00;1776360;79;21088;-63
2021/05/02 05:23:57;;;;;;;5.55;5.05;;;;;;;15.92;95.62;98203.48;1797765;79;21172;-63
2021/05/02 05:26:24;;;;;;;5.80;5.25;;;;;;;16.50;92.31;98191.29;1781194;79;21353;-62
2021/05/02 05:28:52;;;;;;;5.67;5.17;;;;;;;17.11;87.51;98182.48;1783748;79;21161;-61
2021/05/02 05:31:22;;;;;;;5.55;5.15;;;;;;;17.63;84.74;98179.87;1713549;82;21160;-62
2021/05/02 05:33:52;;;;;;;5.87;5.37;;;;;;;18.16;80.24;98179.27;1737875;82;21052;-64
2021/05/02 05:36:27;;;;;;;4.80;4.40;;;;;;;18.63;77.39;98183.62;1735377;82;21112;-61
2021/05/02 05:38:57;;;;;;;5.75;5.22;;;;;;;19.09;74.43;98191.62;1754618;81;21188;-60
2021/05/02 05:41:25;;;;;;;5.20;4.80;;;;;;;19.50;71.45;98186.88;1738878;81;21196;-62
2021/05/02 05:43:52;;;;;;;4.90;4.58;;;;;;;19.91;71.31;98189.88;1737849;82;21061;-62
2021/05/02 05:46:20;;;;;;;5.22;4.83;;;;;;;20.17;68.21;98183.54;1732283;82;21073;-63
2021/05/02 05:48:49;;;;;;;5.30;4.80;;;;;;;20.16;66.92;98181.91;1762297;80;21100;-63
2021/05/02 05:51:18;;;;;;;4.58;4.17;;;;;;;20.16;68.27;98176.50;1742284;81;21280;-61
2021/05/02 05:53:45;;;;;;;4.50;4.20;;;;;;;20.38;67.61;98167.73;1741194;81;21175;-62
2021/05/02 05:56:13;;;;;;;5.10;4.78;;;;;;;20.71;66.24;98161.88;1745717;81;21221;-63
2021/05/02 05:58:41;;;;;;;5.08;4.67;;;;;;;20.99;65.37;98159.78;1736566;81;21195;-65
2021/05/02 06:01:08;;;;;;;5.33;4.95;;;;;;;21.19;63.34;98151.71;1734660;81;21052;-61
2021/05/02 06:03:41;;;;;;;5.83;5.42;;;;;;;21.24;63.47;98148.47;1728589;81;22511;-62
2021/05/02 06:06:10;;;;;;;5.03;4.62;;;;;;;21.31;62.65;98154.95;1733837;81;21068;-63
2021/05/02 06:08:39;;;;;;;4.40;4.05;;;;;;;21.18;62.87;98157.66;1737613;81;21072;-62
2021/05/02 06:11:07;;;;;;;4.80;4.40;;;;;;;21.20;63.98;98162.78;1734207;81;21118;-62
2021/05/02 06:13:35;;;;;;;4.92;4.58;;;;;;;21.33;62.56;98159.54;1730081;81;21175;-63
2021/05/02 06:16:07;;;;;;;4.40;4.10;;;;;;;21.44;62.72;98149.80;1742455;80;22272;-62
2021/05/02 06:18:37;;;;;;;4.92;4.53;;;;;;;21.74;62.68;98150.32;1745732;80;21136;-64
2021/05/02 06:21:05;;;;;;;4.70;4.37;;;;;;;22.06;61.88;98149.97;1782898;79;21328;-63
2021/05/02 06:23:32;;;;;;;4.15;3.85;;;;;;;22.35;60.64;98137.94;1746727;80;21202;-61
2021/05/02 06:26:00;;;;;;;5.53;5.12;;;;;;;22.58;60.57;98137.28;1740620;80;21480;-62
2021/05/02 06:28:30;;;;;;;5.78;5.10;;;;;;;22.60;60.01;98133.77;1782560;79;21361;-63
2021/05/02 06:31:00;;;;;;;5.87;5.17;;;;;;;22.65;60.54;98133.23;1746997;80;21591;-63
2021/05/02 06:33:31;;;;;;;5.28;4.90;;;;;;;22.71;59.30;98131.27;1748434;80;21049;-62
2021/05/02 06:35:59;;;;;;;5.10;4.70;;;;;;;22.49;59.12;98127.59;1794999;79;20907;-62
2021/05/02 06:38:26;;;;;;;4.95;4.55;;;;;;;22.09;59.95;98136.70;1790714;79;21073;-62
2021/05/02 06:40:54;;;;;;;5.87;4.60;;;;;;;21.56;61.19;98127.89;1780402;79;21570;-62
2021/05/02 06:43:22;;;;;;;4.67;4.33;;;;;;;21.17;62.60;98133.60;1790584;79;21076;-62
2021/05/02 06:45:49;;;;;;;4.35;4.00;;;;;;;20.94;63.57;98130.30;1776653;79;21139;-62
2021/05/02 06:48:17;;;;;;;4.42;4.03;;;;;;;20.88;64.14;98134.06;1787725;79;21117;-62
2021/05/02 06:50:44;;;;;;;3.95;3.67;;;;;;;20.87;64.86;98132.46;1788354;79;21147;-62
2021/05/02 06:53:11;;;;;;;4.15;3.77;;;;;;;20.99;64.35;98127.34;1780164;79;21516;-61
2021/05/02 06:55:39;;;;;;;3.98;3.67;;;;;;;21.31;64.02;98121.14;1777138;79;21008;-63
2021/05/02 06:58:08;;;;;;;6.55;4.20;;;;;;;21.73;62.47;98123.52;1792507;79;21006;-64
2021/05/02 07:00:37;;;;;;;4.22;3.92;;;;;;;21.96;61.78;98125.64;1786899;79;21168;-61
2021/05/02 07:03:06;;;;;;;4.15;3.85;;;;;;;21.94;61.00;98136.76;1794870;79;21108;-62
2021/05/02 07:05:36;;;;;;;4.53;4.22;;;;;;;21.71;61.59;98135.98;1786347;79;21135;-63
2021/05/02 07:08:04;;;;;;;5.35;4.95;;;;;;;21.58;62.28;98135.19;1737766;81;21100;-68
2021/05/02 07:10:31;;;;;;;8.45;4.92;;;;;;;21.55;62.75;98133.02;1727690;81;21175;-67
2021/05/02 07:12:58;;;;;;;4.03;3.72;;;;;;;21.63;62.24;98128.41;1715872;82;21491;-62
2021/05/02 07:15:26;;;;;;;5.83;4.17;;;;;;;21.67;61.58;98132.18;1736101;80;21652;-65
2021/05/02 07:17:56;;;;;;;5.12;4.72;;;;;;;21.62;62.41;98132.73;1732637;81;21299;-67
2021/05/02 07:20:23;;;;;;;4.53;4.03;;;;;;;21.56;63.08;98140.07;1777219;79;21092;-63
2021/05/02 07:22:54;;;;;;;4.55;4.25;;;;;;;21.63;62.71;98133.01;1773277;79;21053;-60
2021/05/02 07:25:23;;;;;;;4.17;3.87;;;;;;;21.74;62.26;98135.44;1775901;79;21180;-63
2021/05/02 07:27:51;;;;;;;4.10;3.80;;;;;;;21.75;61.18;98129.45;1773954;79;21106;-63
2021/05/02 07:30:20;;;;;;;4.42;4.03;;;;;;;21.81;60.88;98123.77;1773692;79;21388;-69
2021/05/02 07:32:49;;;;;;;5.20;4.15;;;;;;;21.89;61.16;98111.59;1795205;79;21108;-65
2021/05/02 07:35:18;;;;;;;4.97;4.58;;;;;;;22.01;61.08;98107.48;1790712;79;21140;-63
2021/05/02 07:37:45;;;;;;;5.90;4.12;;;;;;;22.13;62.33;98102.55;1737625;82;21582;-58
2021/05/02 07:40:13;;;;;;;4.97;4.58;;;;;;;22.29;62.61;98097.88;1716683;82;21635;-66
2021/05/02 07:42:41;;;;;;;6.37;4.65;;;;;;;22.46;62.86;98094.81;1722039;82;21394;-62
2021/05/02 07:45:09;;;;;;;5.10;4.00;;;;;;;22.71;63.08;98091.97;1723923;82;20967;-66
2021/05/02 07:47:36;;;;;;;5.53;4.90;;;;;;;23.12;60.97;98088.42;1717367;82;21022;-61
2021/05/02 07:50:08;;;;;;;5.60;5.10;;;;;;;23.42;60.90;98084.63;1765544;81;21137;-64
2021/05/02 07:52:36;;;;;;;7.40;4.95;;;;;;;23.62;60.09;98085.23;1745779;81;21619;-64
2021/05/02 07:55:04;;;;;;;6.95;5.10;;;;;;;23.72;58.93;98078.91;1720790;82;21421;-61
2021/05/02 07:57:32;;;;;;;5.85;5.15;;;;;;;23.63;58.92;98077.36;1725757;82;21057;-65
2021/05/02 08:00:01;;;;;;;4.75;4.35;;;;;;;23.40;60.13;98080.86;1730586;82;21188;-65
2021/05/02 08:02:28;;;;;;;4.95;4.60;;;;;;;23.24;60.69;98080.17;1783594;79;20982;-64
2021/05/02 08:04:56;;;;;;;4.45;4.15;;;;;;;23.09;60.54;98080.84;1786677;79;21228;-68
2021/05/02 08:07:23;;;;;;;4.50;4.15;;;;;;;23.12;61.07;98064.83;1780557;79;21713;-66
2021/05/02 08:09:51;;;;;;;5.22;4.83;;;;;;;23.35;60.84;98064.06;1784236;79;21017;-65
2021/05/02 08:12:22;;;;;;;5.50;5.10;;;;;;;23.48;60.12;98059.89;1769440;79;21009;-67
2021/05/02 08:14:51;;;;;;;5.53;5.12;;;;;;;23.60;60.70;98057.58;1800583;79;21072;-65
2021/05/02 08:17:18;;;;;;;4.37;3.98;;;;;;;23.93;59.75;98058.58;1775730;79;21152;-66
2021/05/02 08:19:46;;;;;;;5.45;4.87;;;;;;;24.21;59.02;98054.98;1785109;80;21595;-66
2021/05/02 08:22:16;;;;;;;4.90;4.55;;;;;;;24.51;57.29;98053.18;1773972;79;21175;-67
2021/05/02 08:24:44;;;;;;;4.47;4.17;;;;;;;24.54;57.36;98053.95;1800056;79;21046;-67
2021/05/02 08:27:11;;;;;;;4.92;4.42;;;;;;;24.65;56.87;98049.17;1792882;79;21172;-65
2021/05/02 08:29:39;;;;;;;4.17;3.87;;;;;;;24.78;55.81;98043.02;1774093;79;21064;-64
2021/05/02 08:32:06;;;;;;;4.95;4.47;;;;;;;24.77;56.06;98037.28;1777225;79;21444;-64
2021/05/02 08:34:34;;;;;;;5.80;5.30;;;;;;;24.78;56.46;98039.45;1790014;79;21003;-65
2021/05/02 08:37:02;;;;;;;6.58;5.25;;;;;;;24.68;56.91;98027.38;1792068;79;20958;-67
2021/05/02 08:39:30;;;;;;;4.85;4.45;;;;;;;24.61;57.15;98032.39;1780686;79;21162;-66
2021/05/02 08:41:58;;;;;;;4.50;4.10;;;;;;;24.46;57.50;98027.44;1782206;79;21504;-67
2021/05/02 08:44:28;;;;;;;4.85;4.35;;;;;;;24.28;57.76;98028.24;1783408;79;21196;-66
2021/05/02 08:46:56;;;;;;;5.40;5.00;;;;;;;24.21;58.92;98016.94;1748670;80;21050;-57
2021/05/02 08:49:24;;;;;;;5.62;4.45;;;;;;;24.28;58.82;98011.94;1757992;80;20990;-59
2021/05/02 08:51:51;;;;;;;8.75;5.00;;;;;;;24.35;58.25;98001.50;1771742;79;21007;-58
2021/05/02 08:54:19;;;;;;;7.20;5.10;;;;;;;24.47;58.37;98005.14;1795333;79;21132;-57
2021/05/02 08:56:55;;;;;;;5.12;4.72;;;;;;;24.58;57.55;97988.94;1784176;79;21581;-58
2021/05/02 08:59:25;;;;;;;4.90;4.50;;;;;;;24.53;57.74;97988.45;1783194;79;21147;-58
2021/05/02 09:01:57;;;;;;;3.90;3.60;;;;;;;24.62;58.21;97985.88;1801223;79;21014;-58
2021/05/02 09:04:25;;;;;;;4.47;4.08;;;;;;;24.93;55.20;97979.39;1715938;82;21145;-58
2021/05/02 09:06:53;;;;;;;4.78;4.30;;;;;;;25.15;55.48;97968.13;1793220;79;21136;-60
2021/05/02 09:09:24;;;;;;;3.70;3.40;;;;;;;25.47;53.52;97963.16;1782929;79;20954;-59
2021/05/02 09:11:55;;;;;;;4.40;4.08;;;;;;;25.54;52.65;97955.42;1731759;80;21031;-58
2021/05/02 09:17:13;;;;;;;4.30;4.00;;;;;;;24.88;51.87;97940.86;1792303;78;22823;-58
2021/05/02 09:19:50;;;;;;;3.87;3.52;;;;;;;24.33;52.44;97952.63;1792121;79;21052;-57
2021/05/02 09:22:18;;;;;;;5.25;3.60;;;;;;;23.73;53.51;97941.51;1780602;79;21391;-60
2021/05/02 09:25:10;;;;;;;5.47;4.17;;;;;;;23.22;55.20;97948.08;1787258;79;21620;-58
2021/05/02 09:27:48;;;;;;;4.20;3.90;;;;;;;22.87;57.19;97944.37;1758216;78;20929;-58
2021/05/02 09:30:19;;;;;;;6.12;3.90;;;;;;;22.57;57.85;97935.14;1787739;79;21057;-60
2021/05/02 09:32:48;;;;;;;4.65;3.58;;;;;;;22.51;58.77;97924.89;1807718;78;21638;-59
2021/05/02 09:35:25;;;;;;;4.37;3.62;;;;;;;22.81;59.14;97924.38;1781546;79;21192;-59
2021/05/02 09:38:08;;;;;;;4.08;3.67;;;;;;;23.23;55.71;97923.13;1758320;79;21632;-59
2021/05/02 09:40:56;;;;;;;4.90;3.70;;;;;;;23.60;56.07;97908.83;1818148;76;22739;-59
2021/05/02 09:43:37;;;;;;;4.28;3.47;;;;;;;23.92;55.13;97904.32;1799822;77;21096;-58
2021/05/02 09:46:33;;;;;;;3.92;3.20;;;;;;;24.21;54.34;97907.45;1786676;77;22180;-58
2021/05/02 09:49:13;;;;;;;3.42;3.00;;;;;;;24.48;53.56;97901.55;1793763;77;20946;-58
2021/05/02 09:51:47;;;;;;;3.65;2.72;;;;;;;24.64;51.40;97895.88;1784695;77;20925;-60
2021/05/02 09:54:18;;;;;;;3.40;2.65;;;;;;;24.48;51.06;97898.83;1784662;77;21044;-60
2021/05/02 09:56:52;;;;;;;3.47;2.58;;;;;;;24.27;51.71;97894.05;1793035;77;21030;-59
2021/05/02 09:59:30;;;;;;;3.30;2.08;;;;;;;24.35;51.69;97886.00;1813344;77;21180;-59
2021/05/02 10:02:12;;;;;;;2.05;1.57;;;;;;;24.64;49.34;97896.66;1784718;79;20941;-58
2021/05/02 10:04:49;;;;;;;1.77;1.27;;;;;;;24.80;47.02;97891.78;1808035;77;21013;-59
2021/05/02 10:07:25;;;;;;;2.30;1.25;;;;;;;24.91;45.22;97878.26;1798879;77;21028;-58
2021/05/02 10:09:53;;;;;;;1.80;1.25;;;;;;;25.07;45.23;97876.86;1784748;79;20934;-58
2021/05/02 10:12:21;;;;;;;2.98;1.30;;;;;;;25.21;44.46;97880.41;1796502;77;21183;-58
2021/05/02 10:14:51;;;;;;;3.00;1.70;;;;;;;25.06;43.53;97875.23;1784586;78;21006;-59
2021/05/02 10:17:18;;;;;;;2.47;1.60;;;;;;;24.75;44.11;97870.91;1794768;79;21063;-57
2021/05/02 10:19:47;;;;;;;2.42;1.65;;;;;;;24.46;45.69;97856.75;1794689;77;21108;-57
2021/05/02 10:22:18;;;;;;;2.85;1.60;;;;;;;24.26;46.23;97868.78;1786767;77;20937;-58
2021/05/02 10:24:45;;;;;;;1.90;1.32;;;;;;;24.04;45.95;97860.41;1802407;77;21366;-59
2021/05/02 10:27:13;;;;;;;2.00;1.17;;;;;;;23.83;46.62;97852.31;1785239;77;20941;-60
2021/05/02 10:29:42;;;;;;;2.67;1.60;;;;;;;23.78;46.43;97860.53;1816741;77;21108;-58
2021/05/02 10:32:11;;;;;;;1.92;1.30;;;;;;;23.80;45.75;97850.20;1788203;78;21029;-57
2021/05/02 10:34:43;;;;;;;2.15;1.35;;;;;;;23.90;46.82;97843.27;1813676;77;21043;-59
2021/05/02 10:37:28;;;;;;;4.62;1.52;;;;;;;24.14;46.21;97832.32;1815998;77;22159;-57
2021/05/02 10:40:23;;;;;;;1.45;1.32;;;;;;;24.34;45.30;97858.59;1812498;78;21050;-56
2021/05/02 10:43:01;;;;;;;2.42;1.42;;;;;;;24.30;45.30;97846.69;1808327;78;21022;-56
2021/05/02 10:45:43;;;;;;;3.80;1.30;;;;;;;24.18;45.49;97842.29;1805719;78;21059;-58
2021/05/02 10:48:27;;;;;;;3.40;1.40;;;;;;;24.16;45.78;97826.84;1767437;78;21025;-59
2021/05/02 10:50:54;;;;;;;3.02;1.65;;;;;;;24.29;45.61;97830.16;1773666;79;21376;-59
2021/05/02 10:53:24;;;;;;;2.37;1.42;;;;;;;24.47;44.60;97808.09;1773235;79;21462;-58
2021/05/02 10:56:07;;;;;;;2.42;1.40;;;;;;;24.55;43.16;97843.55;1773285;79;21179;-58
2021/05/02 10:58:40;;;;;;;1.47;1.07;;;;;;;24.45;43.58;97812.48;1772065;78;21186;-56
2021/05/02 11:01:11;;;;;;;2.15;1.50;;;;;;;24.29;43.84;97798.91;1773147;78;20970;-57
2021/05/02 11:03:44;;;;;;;2.40;1.60;;;;;;;24.14;44.10;97794.29;1778326;78;21471;-59
2021/05/02 11:06:13;;;;;;;2.10;1.40;;;;;;;23.99;43.44;97796.66;1796548;78;20924;-58
2021/05/02 11:08:52;;;;;;;2.92;1.27;;;;;;;23.97;44.43;97805.66;1765570;78;20937;-56
2021/05/02 11:11:36;;;;;;;2.30;1.30;;;;;;;23.86;43.65;97803.66;1797346;78;21047;-58
2021/05/02 11:14:18;;;;;;;6.70;1.45;;;;;;;23.69;43.93;97789.83;1788472;78;21168;-58
2021/05/02 11:16:52;;;;;;;3.45;1.85;;;;;;;23.53;45.30;97772.70;1705596;81;21100;-58
2021/05/02 11:19:25;;;;;;;3.50;2.15;;;;;;;23.39;44.82;97794.91;1765353;81;21562;-58
2021/05/02 11:22:04;;;;;;;4.35;1.87;;;;;;;23.24;46.32;97777.69;1743957;80;21561;-59
2021/05/02 11:24:43;;;;;;;2.40;1.40;;;;;;;23.21;46.38;97766.06;1738744;79;21121;-59
2021/05/02 11:30:05;;;;;;;4.62;1.52;;;;;;;22.93;46.67;97771.06;1748671;79;21369;-59
2021/05/02 11:32:40;;;;;;;3.35;1.37;;;;;;;22.76;47.24;97770.70;1728156;79;21027;-59
2021/05/02 11:35:11;;;;;;;3.52;1.42;;;;;;;22.63;47.99;97757.31;1743121;79;21135;-57
2021/05/02 11:38:03;;;;;;;3.00;1.70;;;;;;;22.57;48.66;97765.23;1767354;79;21165;-58
2021/05/02 11:40:34;;;;;;;4.75;2.05;;;;;;;22.45;50.16;97768.05;1751218;80;21183;-58
2021/05/02 11:43:12;;;;;;;3.67;1.42;;;;;;;22.27;49.39;97770.14;1736255;79;21421;-57
2021/05/02 11:45:53;;;;;;;5.40;2.45;;;;;;;22.16;49.99;97795.73;1734594;81;21159;-57
2021/05/02 11:48:41;;;;;;;2.65;1.70;;;;;;;22.03;50.97;97768.20;1738641;81;21094;-56
2021/05/02 11:51:23;;;;;;;5.30;1.90;;;;;;;21.87;52.22;97772.70;1766106;79;21536;-58